Terminal Aerodrome Forecast
Issued by NWS

Current Version | Previous Version | Text Only | Print | Product List | Glossary On
Versions: 1 2 3 4 5 6 7 8 9 10 11 12 13 14 15 16 17 18 19
000
FTUS46 KSEW 231753
TAFOLM
TAF
KOLM 231753Z 2318/2418 00000KT 3SM -SHRASN BR BKN005 OVC015
     FM232000 VRB03KT P6SM VCSH SCT018 BKN030
     FM232200 VRB03KT P6SM SCT030 BKN050
      TEMPO 2322/2402 5SM -SHRASN SCT020 BKN030
     FM240900 20003KT 4SM BR SCT010 OVC018
      TEMPO 2410/2414 1SM -SHSN BR BKN006 OVC010
     FM241700 19004KT P6SM VCSH SCT008 BKN015=

USA.gov is the U.S. government's official web portal to all federal, state and local government web resources and services.